KPIR/PIR METAR and TAF weather

Enter ICAO airport designator
Station Type Date Time Source
KPIR METAR 2021/04/13 06:53 UTC NOAA

KPIR 130653Z AUTO 32022G33KT 10SM BKN043 BKN060 01/M06 A3013 RMK AO2 PK WND 32033/0644 SLP214 T00061056


Station Type Date Time Source
KPIR Decoded METAR 2021/04/13 06:53 UTC NOAA

PIERRE REGIONAL AIRPORT, SD, United States (KPIR) 44-23N 100-17W 526M
Apr 13, 2021 - 02:53 AM EDT / 2021.04.13 0653 UTC
Wind: from the NW (320 degrees) at 25 MPH (22 KT) gusting to 38 MPH (33 KT):0
Visibility: 10 mile(s):0
Sky conditions: mostly cloudy
Temperature: 33.1 F (0.6 C)
Windchill: 19 F (-7 C):1
Dew Point: 21.9 F (-5.6 C)
Relative Humidity: 63%
Pressure (altimeter): 30.13 in. Hg (1020 hPa)
ob: KPIR 130653Z AUTO 32022G33KT 10SM BKN043 BKN060 01/M06 A3013 RMK AO2 PK WND 32033/0644 SLP214 T00061056
cycle: 7

Station Type Date Time Source
KPIR TAF 2021/04/13 06:40 UTC NOAA

TAF KPIR 130538Z 1306/1406 31020G35KT P6SM OVC045
FM131300 31020G30KT P6SM BKN025
FM131700 31023G32KT P6SM BKN040
FM140000 33013G20KT P6SM SCT100

Example: see airport list